MSC Carolina — 3ECV5 — position and weather

sailwx.info

Track history (hours):
 
Tides and Currents Weather Stations Pressure Air Temp Water Temp Dewpoint Dewpoint Depression Visibility Wind Speed Wind Dir Waves Ship Positions

MSC Carolina

Last reported at 2015-Apr-18 13:33 UTC. Time now 2015-Apr-19 15:42 UTC.
Position N 31°55' W 080°38'.

Length 275 m; draft 10.2 m.

Type: Ship (hazmat cat B). MMSI: 371475000.

Date/timePositionNaut miles runAvg speedWind from/ knotsBaromVisibWave heightAir tempDewpointWater temp
2015-Apr-18 13:33N 31°55' W 080°38'1111.1
2015-Apr-18 12:34N 32°02' W 080°49'1111.3
2015-Apr-18 11:33N 32°05' W 081°01'6 5.6
2015-Apr-18 10:33N 32°07' W 081°08'1 1.1
2015-Apr-18 09:31N 32°08' W 081°08'0 0.0
2015-Apr-18 08:31N 32°08' W 081°08'0 0.0
2015-Apr-18 07:31N 32°08' W 081°08'0 0.0
2015-Apr-18 06:19N 32°08' W 081°08'0 0.0
2015-Apr-18 05:31N 32°08' W 081°08'0 0.0
2015-Apr-18 04:34N 32°08' W 081°08'0 0.0
2015-Apr-18 03:30N 32°08' W 081°08'0 0.0
2015-Apr-18 02:31N 32°08' W 081°08'0 0.0
2015-Apr-18 01:33N 32°08' W 081°08'0 0.0
2015-Apr-18 00:33N 32°08' W 081°08'0 0.0
2015-Apr-17 23:30N 32°08' W 081°08'0 0.0
2015-Apr-17 22:33N 32°08' W 081°08'0 0.0
2015-Apr-17 21:33N 32°08' W 081°08'0 0.0
2015-Apr-17 20:33N 32°08' W 081°08'0 0.0
2015-Apr-17 19:33N 32°08' W 081°08'0 0.0
2015-Apr-17 18:33N 32°08' W 081°08'0 0.0
2015-Apr-17 17:30N 32°08' W 081°08'0 0.0
2015-Apr-17 16:33N 32°08' W 081°08'0 0.0
2015-Apr-17 15:33N 32°08' W 081°08'0 0.0
2015-Apr-17 14:33N 32°08' W 081°08'0 0.0
2015-Apr-17 13:33N 32°08' W 081°08'0 0.0
2015-Apr-17 12:33N 32°08' W 081°08'0 0.0
2015-Apr-17 11:33N 32°08' W 081°08'0 0.0
2015-Apr-17 10:33N 32°08' W 081°08'3 3.0
2015-Apr-17 09:33N 32°06' W 081°06'7 7.2
2015-Apr-17 08:33N 32°04' W 080°58'1413.6
2015-Apr-17 07:33N 31°58' W 080°44'7 6.8
2015-Apr-17 06:33N 31°55' W 080°37'8 8.1
2015-Apr-17 05:32N 31°54' W 080°27'  
2015-Apr-14 05:26N 36°49' W 075°45'13514.5
2015-Apr-13 20:07N 38°35' W 073°59'1218.7
2015-Apr-13 19:29N 38°47' W 073°57'1718.5
2015-Apr-13 18:33N 39°04' W 073°56'1918.6
2015-Apr-13 17:33N 39°22' W 073°54'1918.6
2015-Apr-13 16:34N 39°41' W 073°52'1918.6
2015-Apr-13 15:33N 39°59' W 073°50'1414.2
2015-Apr-13 14:33N 40°14' W 073°49'10 9.7
2015-Apr-13 13:33N 40°23' W 073°49'9 9.4
2015-Apr-13 12:33N 40°30' W 073°57'1111.3
2015-Apr-13 11:33N 40°39' W 074°07'3 2.5
2015-Apr-13 10:33N 40°41' W 074°09'0 0.0
2015-Apr-13 09:33N 40°41' W 074°09'0 0.0
2015-Apr-13 08:33N 40°41' W 074°09'0 0.0
2015-Apr-13 07:33N 40°41' W 074°09'0 0.0
2015-Apr-13 06:33N 40°41' W 074°09'0 0.0
2015-Apr-13 05:33N 40°41' W 074°09'0 0.0
2015-Apr-13 04:27N 40°41' W 074°09'0 0.0
2015-Apr-13 03:33N 40°41' W 074°09'0 0.0
2015-Apr-13 02:33N 40°41' W 074°09'0 0.0
2015-Apr-13 01:33N 40°41' W 074°09'0 0.0
2015-Apr-13 00:30N 40°41' W 074°09'0 0.0
2015-Apr-12 23:33N 40°41' W 074°09'0 0.0
2015-Apr-12 22:33N 40°41' W 074°09'0 0.0
2015-Apr-12 21:30N 40°41' W 074°09'0 0.0
2015-Apr-12 20:33N 40°41' W 074°09'0 0.0
2015-Apr-12 19:33N 40°41' W 074°09'0 0.0
2015-Apr-12 18:33N 40°41' W 074°09'0 0.0
2015-Apr-12 17:33N 40°41' W 074°09'0 0.0
2015-Apr-12 16:33N 40°41' W 074°09'0 0.0
2015-Apr-12 15:33N 40°41' W 074°09'0 0.0
2015-Apr-12 14:33N 40°41' W 074°09'0 0.0
2015-Apr-12 13:30N 40°41' W 074°09'0 0.0
2015-Apr-12 12:33N 40°41' W 074°09'0 0.0
2015-Apr-12 11:33N 40°41' W 074°09'0 0.0
2015-Apr-12 10:33N 40°41' W 074°09'0 0.0
2015-Apr-12 09:32N 40°41' W 074°09'0 0.0
2015-Apr-12 08:32N 40°41' W 074°09'0 0.0
2015-Apr-12 07:32N 40°41' W 074°09'0 0.0
2015-Apr-12 06:32N 40°41' W 074°09'0 0.0
2015-Apr-12 05:26N 40°41' W 074°09'0 0.0
2015-Apr-12 04:29N 40°41' W 074°09'0 0.0
2015-Apr-12 03:32N 40°41' W 074°09'0 0.0
2015-Apr-12 02:30N 40°41' W 074°09'0 0.0
2015-Apr-12 01:32N 40°41' W 074°09'0 0.0
2015-Apr-12 00:32N 40°41' W 074°09'0 0.0
2015-Apr-11 23:32N 40°41' W 074°09'0 0.0
2015-Apr-11 22:32N 40°41' W 074°09'0 0.0
2015-Apr-11 21:32N 40°41' W 074°09'0 0.0
2015-Apr-11 20:32N 40°41' W 074°09'0 0.0
2015-Apr-11 19:32N 40°41' W 074°09'0 0.0
2015-Apr-11 18:32N 40°41' W 074°09'0 0.0
2015-Apr-11 17:32N 40°41' W 074°09'0 0.0
2015-Apr-11 16:32N 40°41' W 074°09'0 0.0
2015-Apr-11 15:32N 40°41' W 074°09'0 0.0
2015-Apr-11 14:32N 40°41' W 074°09'0 0.0
2015-Apr-11 13:32N 40°41' W 074°09'0 0.0
2015-Apr-11 12:29N 40°41' W 074°09'0 0.0
2015-Apr-11 11:32N 40°41' W 074°09'0 0.0
2015-Apr-11 10:32N 40°41' W 074°09'0 0.0
2015-Apr-11 09:32N 40°41' W 074°09'0 0.0
2015-Apr-11 08:32N 40°41' W 074°09'0 0.0
2015-Apr-11 07:32N 40°41' W 074°09'0 0.0
2015-Apr-11 06:32N 40°41' W 074°09'0 0.0
2015-Apr-11 05:33N 40°41' W 074°09'3 2.6
2015-Apr-11 04:33N 40°39' W 074°07'6 5.5
2015-Apr-11 03:34N 40°35' W 074°02'1211.5
2015-Apr-11 02:33N 40°28' W 073°50'6 5.9
2015-Apr-11 01:33N 40°25' W 073°43'8 5.9
2015-Apr-11 00:13N 40°20' W 073°35'11 6.3
2015-Apr-10 22:27N 40°14' W 073°23'0 0.5
2015-Apr-10 21:33N 40°13' W 073°23'5 4.8
2015-Apr-10 20:33N 40°10' W 073°18'6 6.5
2015-Apr-10 19:33N 40°09' W 073°10'6 4.7
2015-Apr-10 18:22N 40°07' W 073°03'2 1.0
2015-Apr-10 16:22N 40°05' W 073°02'14 0.9
2015-Apr-10 00:32N 40°03' W 072°44'2 2.0
2015-Apr-09 23:29N 40°04' W 072°41'3 2.8
2015-Apr-09 22:33N 40°05' W 072°38'9 9.5
2015-Apr-09 21:33N 40°05' W 072°26'10 9.6
2015-Apr-09 20:33N 40°04' W 072°13'10 9.6
2015-Apr-09 19:33N 40°04' W 072°00'10 9.6
2015-Apr-09 18:33N 40°04' W 071°48'10 9.7
2015-Apr-09 17:33N 40°03' W 071°35'10 9.9
2015-Apr-09 16:33N 40°02' W 071°22'11 9.6
2015-Apr-09 15:27N 40°02' W 071°08'7 8.3
2015-Apr-09 14:33N 40°01' W 070°59'8 8.3
2015-Apr-09 13:33N 40°02' W 070°48'8 7.6
2015-Apr-09 12:32N 40°01' W 070°38'9 9.1
2015-Apr-09 11:31N 40°01' W 070°26'  
Track history (hours):
 
Tides and Currents Weather Stations Pressure Air Temp Water Temp Dewpoint Dewpoint Depression Visibility Wind Speed Wind Dir Waves Ship Positions

MSC Carolina

Last reported at 2015-Apr-18 13:33 UTC. Time now 2015-Apr-19 15:42 UTC.
Position N 31°55' W 080°38'.

Length 275 m; draft 10.2 m.

Type: Ship (hazmat cat B). MMSI: 371475000.

Date/timePositionNaut miles runAvg speedWind from/ knotsBaromVisibWave heightAir tempDewpointWater temp
2015-Apr-18 13:33N 31°55' W 080°38'1111.1
2015-Apr-18 12:34N 32°02' W 080°49'1111.3
2015-Apr-18 11:33N 32°05' W 081°01'6 5.6
2015-Apr-18 10:33N 32°07' W 081°08'1 1.1
2015-Apr-18 09:31N 32°08' W 081°08'0 0.0
2015-Apr-18 08:31N 32°08' W 081°08'0 0.0
2015-Apr-18 07:31N 32°08' W 081°08'0 0.0
2015-Apr-18 06:19N 32°08' W 081°08'0 0.0
2015-Apr-18 05:31N 32°08' W 081°08'0 0.0
2015-Apr-18 04:34N 32°08' W 081°08'0 0.0
2015-Apr-18 03:30N 32°08' W 081°08'0 0.0
2015-Apr-18 02:31N 32°08' W 081°08'0 0.0
2015-Apr-18 01:33N 32°08' W 081°08'0 0.0
2015-Apr-18 00:33N 32°08' W 081°08'0 0.0
2015-Apr-17 23:30N 32°08' W 081°08'0 0.0
2015-Apr-17 22:33N 32°08' W 081°08'0 0.0
2015-Apr-17 21:33N 32°08' W 081°08'0 0.0
2015-Apr-17 20:33N 32°08' W 081°08'0 0.0
2015-Apr-17 19:33N 32°08' W 081°08'0 0.0
2015-Apr-17 18:33N 32°08' W 081°08'0 0.0
2015-Apr-17 17:30N 32°08' W 081°08'0 0.0
2015-Apr-17 16:33N 32°08' W 081°08'0 0.0
2015-Apr-17 15:33N 32°08' W 081°08'0 0.0
2015-Apr-17 14:33N 32°08' W 081°08'0 0.0
2015-Apr-17 13:33N 32°08' W 081°08'0 0.0
2015-Apr-17 12:33N 32°08' W 081°08'0 0.0
2015-Apr-17 11:33N 32°08' W 081°08'0 0.0
2015-Apr-17 10:33N 32°08' W 081°08'3 3.0
2015-Apr-17 09:33N 32°06' W 081°06'7 7.2
2015-Apr-17 08:33N 32°04' W 080°58'1413.6
2015-Apr-17 07:33N 31°58' W 080°44'7 6.8
2015-Apr-17 06:33N 31°55' W 080°37'8 8.1
2015-Apr-17 05:32N 31°54' W 080°27'  
2015-Apr-14 05:26N 36°49' W 075°45'13514.5
2015-Apr-13 20:07N 38°35' W 073°59'1218.7
2015-Apr-13 19:29N 38°47' W 073°57'1718.5
2015-Apr-13 18:33N 39°04' W 073°56'1918.6
2015-Apr-13 17:33N 39°22' W 073°54'1918.6
2015-Apr-13 16:34N 39°41' W 073°52'1918.6
2015-Apr-13 15:33N 39°59' W 073°50'1414.2
2015-Apr-13 14:33N 40°14' W 073°49'10 9.7
2015-Apr-13 13:33N 40°23' W 073°49'9 9.4
2015-Apr-13 12:33N 40°30' W 073°57'1111.3
2015-Apr-13 11:33N 40°39' W 074°07'3 2.5
2015-Apr-13 10:33N 40°41' W 074°09'0 0.0
2015-Apr-13 09:33N 40°41' W 074°09'0 0.0
2015-Apr-13 08:33N 40°41' W 074°09'0 0.0
2015-Apr-13 07:33N 40°41' W 074°09'0 0.0
2015-Apr-13 06:33N 40°41' W 074°09'0 0.0
2015-Apr-13 05:33N 40°41' W 074°09'0 0.0
2015-Apr-13 04:27N 40°41' W 074°09'0 0.0
2015-Apr-13 03:33N 40°41' W 074°09'0 0.0
2015-Apr-13 02:33N 40°41' W 074°09'0 0.0
2015-Apr-13 01:33N 40°41' W 074°09'0 0.0
2015-Apr-13 00:30N 40°41' W 074°09'0 0.0
2015-Apr-12 23:33N 40°41' W 074°09'0 0.0
2015-Apr-12 22:33N 40°41' W 074°09'0 0.0
2015-Apr-12 21:30N 40°41' W 074°09'0 0.0
2015-Apr-12 20:33N 40°41' W 074°09'0 0.0
2015-Apr-12 19:33N 40°41' W 074°09'0 0.0
2015-Apr-12 18:33N 40°41' W 074°09'0 0.0
2015-Apr-12 17:33N 40°41' W 074°09'0 0.0
2015-Apr-12 16:33N 40°41' W 074°09'0 0.0
2015-Apr-12 15:33N 40°41' W 074°09'0 0.0
2015-Apr-12 14:33N 40°41' W 074°09'0 0.0
2015-Apr-12 13:30N 40°41' W 074°09'0 0.0
2015-Apr-12 12:33N 40°41' W 074°09'0 0.0
2015-Apr-12 11:33N 40°41' W 074°09'0 0.0
2015-Apr-12 10:33N 40°41' W 074°09'0 0.0
2015-Apr-12 09:32N 40°41' W 074°09'0 0.0
2015-Apr-12 08:32N 40°41' W 074°09'0 0.0
2015-Apr-12 07:32N 40°41' W 074°09'0 0.0
2015-Apr-12 06:32N 40°41' W 074°09'0 0.0
2015-Apr-12 05:26N 40°41' W 074°09'0 0.0
2015-Apr-12 04:29N 40°41' W 074°09'0 0.0
2015-Apr-12 03:32N 40°41' W 074°09'0 0.0
2015-Apr-12 02:30N 40°41' W 074°09'0 0.0
2015-Apr-12 01:32N 40°41' W 074°09'0 0.0
2015-Apr-12 00:32N 40°41' W 074°09'0 0.0
2015-Apr-11 23:32N 40°41' W 074°09'0 0.0
2015-Apr-11 22:32N 40°41' W 074°09'0 0.0
2015-Apr-11 21:32N 40°41' W 074°09'0 0.0
2015-Apr-11 20:32N 40°41' W 074°09'0 0.0
2015-Apr-11 19:32N 40°41' W 074°09'0 0.0
2015-Apr-11 18:32N 40°41' W 074°09'0 0.0
2015-Apr-11 17:32N 40°41' W 074°09'0 0.0
2015-Apr-11 16:32N 40°41' W 074°09'0 0.0
2015-Apr-11 15:32N 40°41' W 074°09'0 0.0
2015-Apr-11 14:32N 40°41' W 074°09'0 0.0
2015-Apr-11 13:32N 40°41' W 074°09'0 0.0
2015-Apr-11 12:29N 40°41' W 074°09'0 0.0
2015-Apr-11 11:32N 40°41' W 074°09'0 0.0
2015-Apr-11 10:32N 40°41' W 074°09'0 0.0
2015-Apr-11 09:32N 40°41' W 074°09'0 0.0
2015-Apr-11 08:32N 40°41' W 074°09'0 0.0
2015-Apr-11 07:32N 40°41' W 074°09'0 0.0
2015-Apr-11 06:32N 40°41' W 074°09'0 0.0
2015-Apr-11 05:33N 40°41' W 074°09'3 2.6
2015-Apr-11 04:33N 40°39' W 074°07'6 5.5
2015-Apr-11 03:34N 40°35' W 074°02'1211.5
2015-Apr-11 02:33N 40°28' W 073°50'6 5.9
2015-Apr-11 01:33N 40°25' W 073°43'8 5.9
2015-Apr-11 00:13N 40°20' W 073°35'11 6.3
2015-Apr-10 22:27N 40°14' W 073°23'0 0.5
2015-Apr-10 21:33N 40°13' W 073°23'5 4.8
2015-Apr-10 20:33N 40°10' W 073°18'6 6.5
2015-Apr-10 19:33N 40°09' W 073°10'6 4.7
2015-Apr-10 18:22N 40°07' W 073°03'2 1.0
2015-Apr-10 16:22N 40°05' W 073°02'14 0.9
2015-Apr-10 00:32N 40°03' W 072°44'2 2.0
2015-Apr-09 23:29N 40°04' W 072°41'3 2.8
2015-Apr-09 22:33N 40°05' W 072°38'9 9.5
2015-Apr-09 21:33N 40°05' W 072°26'10 9.6
2015-Apr-09 20:33N 40°04' W 072°13'10 9.6
2015-Apr-09 19:33N 40°04' W 072°00'10 9.6
2015-Apr-09 18:33N 40°04' W 071°48'10 9.7
2015-Apr-09 17:33N 40°03' W 071°35'10 9.9
2015-Apr-09 16:33N 40°02' W 071°22'11 9.6
2015-Apr-09 15:27N 40°02' W 071°08'7 8.3
2015-Apr-09 14:33N 40°01' W 070°59'8 8.3
2015-Apr-09 13:33N 40°02' W 070°48'8 7.6
2015-Apr-09 12:32N 40°01' W 070°38'9 9.1
2015-Apr-09 11:31N 40°01' W 070°26'  

Dump ship's entire track history